sensor_id;sensor_type;location;lat;lon;timestamp;P1;durP1;ratioP1;P2;durP2;ratioP2
56567;SDS011;42456;49.956;20.004;2023-08-17T00:01:59;18.40;;;6.40;;
56567;SDS011;42456;49.956;20.004;2023-08-17T00:04:26;10.90;;;6.20;;
56567;SDS011;42456;49.956;20.004;2023-08-17T00:06:53;8.90;;;5.70;;
56567;SDS011;42456;49.956;20.004;2023-08-17T00:09:20;9.20;;;5.10;;
56567;SDS011;42456;49.956;20.004;2023-08-17T00:11:46;10.50;;;5.60;;
56567;SDS011;42456;49.956;20.004;2023-08-17T00:14:13;10.50;;;5.50;;
56567;SDS011;42456;49.956;20.004;2023-08-17T00:16:40;10.90;;;6.00;;
56567;SDS011;42456;49.956;20.004;2023-08-17T00:19:07;8.00;;;5.40;;
56567;SDS011;42456;49.956;20.004;2023-08-17T00:21:34;9.50;;;6.40;;
56567;SDS011;42456;49.956;20.004;2023-08-17T00:24:02;9.70;;;6.20;;
56567;SDS011;42456;49.956;20.004;2023-08-17T00:26:29;11.10;;;6.10;;
56567;SDS011;42456;49.956;20.004;2023-08-17T00:28:56;8.00;;;5.70;;
56567;SDS011;42456;49.956;20.004;2023-08-17T00:31:23;9.40;;;5.80;;
56567;SDS011;42456;49.956;20.004;2023-08-17T00:33:50;6.60;;;5.40;;
56567;SDS011;42456;49.956;20.004;2023-08-17T00:36:16;8.80;;;6.10;;
56567;SDS011;42456;49.956;20.004;2023-08-17T00:38:43;9.20;;;5.70;;
56567;SDS011;42456;49.956;20.004;2023-08-17T00:41:10;8.90;;;5.90;;
56567;SDS011;42456;49.956;20.004;2023-08-17T00:43:37;10.00;;;5.90;;
56567;SDS011;42456;49.956;20.004;2023-08-17T00:46:04;8.60;;;5.80;;
56567;SDS011;42456;49.956;20.004;2023-08-17T00:48:31;7.60;;;5.60;;
56567;SDS011;42456;49.956;20.004;2023-08-17T00:50:59;9.90;;;6.40;;
56567;SDS011;42456;49.956;20.004;2023-08-17T00:53:27;9.30;;;5.90;;
56567;SDS011;42456;49.956;20.004;2023-08-17T00:55:57;9.40;;;5.30;;
56567;SDS011;42456;49.956;20.004;2023-08-17T00:58:25;8.20;;;5.90;;
56567;SDS011;42456;49.956;20.004;2023-08-17T01:00:53;12.00;;;5.60;;
56567;SDS011;42456;49.956;20.004;2023-08-17T01:03:20;7.80;;;5.60;;
56567;SDS011;42456;49.956;20.004;2023-08-17T01:05:48;9.40;;;5.90;;
56567;SDS011;42456;49.956;20.004;2023-08-17T01:08:15;11.60;;;6.40;;
56567;SDS011;42456;49.956;20.004;2023-08-17T01:13:20;10.60;;;5.70;;
56567;SDS011;42456;49.956;20.004;2023-08-17T01:15:52;9.60;;;5.80;;
56567;SDS011;42456;49.956;20.004;2023-08-17T01:18:31;9.20;;;6.20;;
56567;SDS011;42456;49.956;20.004;2023-08-17T01:21:02;10.30;;;6.20;;
56567;SDS011;42456;49.956;20.004;2023-08-17T01:23:32;8.50;;;5.90;;
56567;SDS011;42456;49.956;20.004;2023-08-17T01:25:59;10.00;;;6.10;;
56567;SDS011;42456;49.956;20.004;2023-08-17T01:28:26;10.70;;;6.30;;
56567;SDS011;42456;49.956;20.004;2023-08-17T01:33:28;11.10;;;6.10;;
56567;SDS011;42456;49.956;20.004;2023-08-17T01:38:41;10.90;;;6.40;;
56567;SDS011;42456;49.956;20.004;2023-08-17T01:43:42;13.10;;;6.00;;
56567;SDS011;42456;49.956;20.004;2023-08-17T01:46:17;13.10;;;7.70;;
56567;SDS011;42456;49.956;20.004;2023-08-17T01:48:44;15.60;;;8.40;;
56567;SDS011;42456;49.956;20.004;2023-08-17T01:51:16;15.10;;;7.60;;
56567;SDS011;42456;49.956;20.004;2023-08-17T01:53:45;9.30;;;6.80;;
56567;SDS011;42456;49.956;20.004;2023-08-17T01:56:12;10.60;;;6.60;;
56567;SDS011;42456;49.956;20.004;2023-08-17T01:58:39;10.40;;;7.10;;
56567;SDS011;42456;49.956;20.004;2023-08-17T02:01:06;12.10;;;7.50;;
56567;SDS011;42456;49.956;20.004;2023-08-17T02:03:33;15.60;;;8.50;;
56567;SDS011;42456;49.956;20.004;2023-08-17T02:06:00;12.40;;;7.60;;
56567;SDS011;42456;49.956;20.004;2023-08-17T02:08:27;12.10;;;7.60;;
56567;SDS011;42456;49.956;20.004;2023-08-17T02:10:54;13.80;;;8.00;;
56567;SDS011;42456;49.956;20.004;2023-08-17T02:13:21;12.20;;;7.90;;
56567;SDS011;42456;49.956;20.004;2023-08-17T02:15:48;13.60;;;8.10;;
56567;SDS011;42456;49.956;20.004;2023-08-17T02:18:15;11.90;;;7.50;;
56567;SDS011;42456;49.956;20.004;2023-08-17T02:20:42;14.50;;;8.70;;
56567;SDS011;42456;49.956;20.004;2023-08-17T02:23:09;14.20;;;7.40;;
56567;SDS011;42456;49.956;20.004;2023-08-17T02:25:39;14.90;;;8.30;;
56567;SDS011;42456;49.956;20.004;2023-08-17T02:28:06;13.50;;;8.30;;
56567;SDS011;42456;49.956;20.004;2023-08-17T02:30:33;14.80;;;7.90;;
56567;SDS011;42456;49.956;20.004;2023-08-17T02:33:00;11.60;;;7.50;;
56567;SDS011;42456;49.956;20.004;2023-08-17T02:35:27;13.20;;;7.70;;
56567;SDS011;42456;49.956;20.004;2023-08-17T02:37:54;12.80;;;7.90;;
56567;SDS011;42456;49.956;20.004;2023-08-17T02:40:21;16.20;;;8.20;;
56567;SDS011;42456;49.956;20.004;2023-08-17T02:42:48;11.30;;;7.20;;
56567;SDS011;42456;49.956;20.004;2023-08-17T02:45:15;11.10;;;7.30;;
56567;SDS011;42456;49.956;20.004;2023-08-17T02:47:41;13.50;;;7.50;;
56567;SDS011;42456;49.956;20.004;2023-08-17T02:50:09;14.00;;;7.60;;
56567;SDS011;42456;49.956;20.004;2023-08-17T02:52:36;14.70;;;7.50;;
56567;SDS011;42456;49.956;20.004;2023-08-17T02:55:03;12.70;;;7.50;;
56567;SDS011;42456;49.956;20.004;2023-08-17T02:57:30;11.30;;;7.60;;
56567;SDS011;42456;49.956;20.004;2023-08-17T02:59:57;12.50;;;7.60;;
56567;SDS011;42456;49.956;20.004;2023-08-17T03:02:24;13.10;;;7.80;;
56567;SDS011;42456;49.956;20.004;2023-08-17T03:04:50;10.70;;;7.00;;
56567;SDS011;42456;49.956;20.004;2023-08-17T03:07:17;15.00;;;7.30;;
56567;SDS011;42456;49.956;20.004;2023-08-17T03:09:44;12.00;;;6.90;;
56567;SDS011;42456;49.956;20.004;2023-08-17T03:12:11;11.60;;;7.30;;
56567;SDS011;42456;49.956;20.004;2023-08-17T03:14:38;11.80;;;7.10;;
56567;SDS011;42456;49.956;20.004;2023-08-17T03:17:05;12.30;;;7.30;;
56567;SDS011;42456;49.956;20.004;2023-08-17T03:19:31;9.70;;;6.90;;
56567;SDS011;42456;49.956;20.004;2023-08-17T03:21:58;11.10;;;7.10;;
56567;SDS011;42456;49.956;20.004;2023-08-17T03:24:25;10.50;;;7.20;;
56567;SDS011;42456;49.956;20.004;2023-08-17T03:26:52;10.90;;;7.50;;
56567;SDS011;42456;49.956;20.004;2023-08-17T03:29:19;14.20;;;7.70;;
56567;SDS011;42456;49.956;20.004;2023-08-17T03:31:45;12.10;;;7.70;;
56567;SDS011;42456;49.956;20.004;2023-08-17T03:34:12;9.70;;;7.10;;
56567;SDS011;42456;49.956;20.004;2023-08-17T03:36:39;14.80;;;7.20;;
56567;SDS011;42456;49.956;20.004;2023-08-17T03:39:06;11.00;;;7.00;;
56567;SDS011;42456;49.956;20.004;2023-08-17T03:41:33;11.90;;;7.40;;
56567;SDS011;42456;49.956;20.004;2023-08-17T03:44:01;9.70;;;6.90;;
56567;SDS011;42456;49.956;20.004;2023-08-17T03:46:28;11.70;;;7.00;;
56567;SDS011;42456;49.956;20.004;2023-08-17T03:48:56;10.60;;;7.40;;
56567;SDS011;42456;49.956;20.004;2023-08-17T03:51:22;11.10;;;7.10;;
56567;SDS011;42456;49.956;20.004;2023-08-17T03:53:49;10.30;;;7.10;;
56567;SDS011;42456;49.956;20.004;2023-08-17T03:56:16;10.20;;;6.90;;
56567;SDS011;42456;49.956;20.004;2023-08-17T03:58:43;9.50;;;6.80;;
56567;SDS011;42456;49.956;20.004;2023-08-17T04:01:10;9.10;;;6.80;;
56567;SDS011;42456;49.956;20.004;2023-08-17T04:03:37;11.00;;;7.30;;
56567;SDS011;42456;49.956;20.004;2023-08-17T04:06:05;9.30;;;7.00;;
56567;SDS011;42456;49.956;20.004;2023-08-17T04:08:33;16.10;;;7.20;;
56567;SDS011;42456;49.956;20.004;2023-08-17T04:10:59;10.60;;;6.80;;
56567;SDS011;42456;49.956;20.004;2023-08-17T04:13:26;9.90;;;7.00;;
56567;SDS011;42456;49.956;20.004;2023-08-17T04:15:54;10.60;;;7.00;;
56567;SDS011;42456;49.956;20.004;2023-08-17T04:18:20;12.40;;;7.20;;
56567;SDS011;42456;49.956;20.004;2023-08-17T04:20:48;11.70;;;7.50;;
56567;SDS011;42456;49.956;20.004;2023-08-17T04:23:18;13.00;;;7.70;;
56567;SDS011;42456;49.956;20.004;2023-08-17T04:25:46;11.80;;;7.20;;
56567;SDS011;42456;49.956;20.004;2023-08-17T04:28:14;13.60;;;7.70;;
56567;SDS011;42456;49.956;20.004;2023-08-17T04:30:42;13.30;;;7.50;;
56567;SDS011;42456;49.956;20.004;2023-08-17T04:33:09;12.40;;;7.50;;
56567;SDS011;42456;49.956;20.004;2023-08-17T04:35:36;12.00;;;7.80;;
56567;SDS011;42456;49.956;20.004;2023-08-17T04:38:03;11.60;;;7.00;;
56567;SDS011;42456;49.956;20.004;2023-08-17T04:40:30;12.20;;;7.20;;
56567;SDS011;42456;49.956;20.004;2023-08-17T04:42:57;11.50;;;7.10;;
56567;SDS011;42456;49.956;20.004;2023-08-17T04:45:24;11.70;;;7.40;;
56567;SDS011;42456;49.956;20.004;2023-08-17T04:47:51;12.70;;;7.60;;
56567;SDS011;42456;49.956;20.004;2023-08-17T04:50:18;9.80;;;7.00;;
56567;SDS011;42456;49.956;20.004;2023-08-17T04:52:45;12.60;;;7.80;;
56567;SDS011;42456;49.956;20.004;2023-08-17T04:55:14;10.60;;;7.20;;
56567;SDS011;42456;49.956;20.004;2023-08-17T04:57:41;10.20;;;6.80;;
56567;SDS011;42456;49.956;20.004;2023-08-17T05:00:08;11.90;;;8.10;;
56567;SDS011;42456;49.956;20.004;2023-08-17T05:02:37;13.20;;;7.50;;
56567;SDS011;42456;49.956;20.004;2023-08-17T05:05:04;13.40;;;7.30;;
56567;SDS011;42456;49.956;20.004;2023-08-17T05:07:33;12.40;;;7.80;;
56567;SDS011;42456;49.956;20.004;2023-08-17T05:10:00;11.60;;;7.60;;
56567;SDS011;42456;49.956;20.004;2023-08-17T05:12:28;12.70;;;7.60;;
56567;SDS011;42456;49.956;20.004;2023-08-17T05:14:55;11.90;;;7.50;;
56567;SDS011;42456;49.956;20.004;2023-08-17T05:17:22;11.10;;;6.90;;
56567;SDS011;42456;49.956;20.004;2023-08-17T05:19:49;15.60;;;7.60;;
56567;SDS011;42456;49.956;20.004;2023-08-17T05:22:16;9.20;;;7.30;;
56567;SDS011;42456;49.956;20.004;2023-08-17T05:24:43;11.60;;;7.30;;
56567;SDS011;42456;49.956;20.004;2023-08-17T05:27:09;11.20;;;7.50;;
56567;SDS011;42456;49.956;20.004;2023-08-17T05:29:36;12.60;;;7.30;;
56567;SDS011;42456;49.956;20.004;2023-08-17T05:32:03;12.50;;;8.10;;
56567;SDS011;42456;49.956;20.004;2023-08-17T05:34:30;11.40;;;7.60;;
56567;SDS011;42456;49.956;20.004;2023-08-17T05:36:57;12.80;;;7.70;;
56567;SDS011;42456;49.956;20.004;2023-08-17T05:39:24;10.60;;;7.40;;
56567;SDS011;42456;49.956;20.004;2023-08-17T05:41:51;12.90;;;7.80;;
56567;SDS011;42456;49.956;20.004;2023-08-17T05:44:18;13.70;;;7.90;;
56567;SDS011;42456;49.956;20.004;2023-08-17T05:46:45;11.90;;;7.90;;
56567;SDS011;42456;49.956;20.004;2023-08-17T05:49:11;14.50;;;9.30;;
56567;SDS011;42456;49.956;20.004;2023-08-17T05:51:38;14.50;;;8.80;;
56567;SDS011;42456;49.956;20.004;2023-08-17T05:54:05;12.70;;;8.70;;
56567;SDS011;42456;49.956;20.004;2023-08-17T05:56:32;14.50;;;8.50;;
56567;SDS011;42456;49.956;20.004;2023-08-17T05:58:59;14.60;;;7.80;;
56567;SDS011;42456;49.956;20.004;2023-08-17T06:01:26;12.10;;;7.90;;
56567;SDS011;42456;49.956;20.004;2023-08-17T06:03:53;14.20;;;8.00;;
56567;SDS011;42456;49.956;20.004;2023-08-17T06:06:20;10.70;;;7.80;;
56567;SDS011;42456;49.956;20.004;2023-08-17T06:08:47;11.50;;;7.30;;
56567;SDS011;42456;49.956;20.004;2023-08-17T06:11:13;12.20;;;7.60;;
56567;SDS011;42456;49.956;20.004;2023-08-17T06:13:40;11.60;;;7.60;;
56567;SDS011;42456;49.956;20.004;2023-08-17T06:16:07;11.20;;;7.70;;
56567;SDS011;42456;49.956;20.004;2023-08-17T06:18:34;12.30;;;7.60;;
56567;SDS011;42456;49.956;20.004;2023-08-17T06:21:01;13.80;;;7.70;;
56567;SDS011;42456;49.956;20.004;2023-08-17T06:23:27;12.50;;;7.80;;
56567;SDS011;42456;49.956;20.004;2023-08-17T06:25:57;13.10;;;7.60;;
56567;SDS011;42456;49.956;20.004;2023-08-17T06:28:25;12.70;;;7.50;;
56567;SDS011;42456;49.956;20.004;2023-08-17T06:30:53;12.70;;;8.20;;
56567;SDS011;42456;49.956;20.004;2023-08-17T06:33:21;11.50;;;7.80;;
56567;SDS011;42456;49.956;20.004;2023-08-17T06:35:49;11.40;;;7.10;;
56567;SDS011;42456;49.956;20.004;2023-08-17T06:38:16;13.70;;;8.00;;
56567;SDS011;42456;49.956;20.004;2023-08-17T06:40:43;11.70;;;7.20;;
56567;SDS011;42456;49.956;20.004;2023-08-17T06:43:10;12.60;;;7.20;;
56567;SDS011;42456;49.956;20.004;2023-08-17T06:45:37;13.80;;;7.50;;
56567;SDS011;42456;49.956;20.004;2023-08-17T06:48:04;9.90;;;7.00;;
56567;SDS011;42456;49.956;20.004;2023-08-17T06:50:32;13.40;;;6.70;;
56567;SDS011;42456;49.956;20.004;2023-08-17T06:52:59;10.20;;;6.80;;
56567;SDS011;42456;49.956;20.004;2023-08-17T06:55:27;10.80;;;6.50;;
56567;SDS011;42456;49.956;20.004;2023-08-17T06:57:54;9.30;;;6.60;;
56567;SDS011;42456;49.956;20.004;2023-08-17T07:00:21;10.50;;;6.80;;
56567;SDS011;42456;49.956;20.004;2023-08-17T07:02:48;10.10;;;6.40;;
56567;SDS011;42456;49.956;20.004;2023-08-17T07:05:22;10.70;;;7.10;;
56567;SDS011;42456;49.956;20.004;2023-08-17T07:07:50;12.20;;;7.00;;
56567;SDS011;42456;49.956;20.004;2023-08-17T07:10:17;12.20;;;7.40;;
56567;SDS011;42456;49.956;20.004;2023-08-17T07:12:44;11.70;;;7.10;;
56567;SDS011;42456;49.956;20.004;2023-08-17T07:15:11;11.70;;;6.90;;
56567;SDS011;42456;49.956;20.004;2023-08-17T07:17:38;10.80;;;6.50;;
56567;SDS011;42456;49.956;20.004;2023-08-17T07:20:06;9.10;;;6.70;;
56567;SDS011;42456;49.956;20.004;2023-08-17T07:22:42;11.70;;;6.50;;
56567;SDS011;42456;49.956;20.004;2023-08-17T07:25:10;10.90;;;6.50;;
56567;SDS011;42456;49.956;20.004;2023-08-17T07:27:37;10.00;;;6.30;;
56567;SDS011;42456;49.956;20.004;2023-08-17T07:30:04;10.90;;;6.60;;
56567;SDS011;42456;49.956;20.004;2023-08-17T07:32:31;12.70;;;6.50;;
56567;SDS011;42456;49.956;20.004;2023-08-17T07:37:27;11.50;;;6.60;;
56567;SDS011;42456;49.956;20.004;2023-08-17T07:39:59;10.20;;;6.30;;
56567;SDS011;42456;49.956;20.004;2023-08-17T07:42:27;12.10;;;6.20;;
56567;SDS011;42456;49.956;20.004;2023-08-17T07:44:53;11.60;;;6.50;;
56567;SDS011;42456;49.956;20.004;2023-08-17T07:47:20;11.10;;;6.30;;
56567;SDS011;42456;49.956;20.004;2023-08-17T07:49:47;10.50;;;6.30;;
56567;SDS011;42456;49.956;20.004;2023-08-17T07:52:15;8.50;;;5.40;;
56567;SDS011;42456;49.956;20.004;2023-08-17T07:54:42;11.00;;;5.90;;
56567;SDS011;42456;49.956;20.004;2023-08-17T07:57:11;11.30;;;5.80;;
56567;SDS011;42456;49.956;20.004;2023-08-17T07:59:38;9.20;;;5.80;;
56567;SDS011;42456;49.956;20.004;2023-08-17T08:02:05;9.10;;;5.90;;
56567;SDS011;42456;49.956;20.004;2023-08-17T08:04:32;13.10;;;6.30;;
56567;SDS011;42456;49.956;20.004;2023-08-17T08:06:59;9.60;;;5.90;;
56567;SDS011;42456;49.956;20.004;2023-08-17T08:09:26;10.90;;;6.00;;
56567;SDS011;42456;49.956;20.004;2023-08-17T08:11:53;11.00;;;5.70;;
56567;SDS011;42456;49.956;20.004;2023-08-17T08:14:20;9.00;;;5.80;;
56567;SDS011;42456;49.956;20.004;2023-08-17T08:16:47;12.20;;;5.80;;
56567;SDS011;42456;49.956;20.004;2023-08-17T08:19:14;10.40;;;5.80;;
56567;SDS011;42456;49.956;20.004;2023-08-17T08:21:41;11.20;;;5.90;;
56567;SDS011;42456;49.956;20.004;2023-08-17T08:24:08;9.00;;;6.10;;
56567;SDS011;42456;49.956;20.004;2023-08-17T08:26:52;11.50;;;6.10;;
56567;SDS011;42456;49.956;20.004;2023-08-17T08:29:19;10.60;;;6.20;;
56567;SDS011;42456;49.956;20.004;2023-08-17T08:31:46;12.70;;;6.00;;
56567;SDS011;42456;49.956;20.004;2023-08-17T08:34:13;8.40;;;5.20;;
56567;SDS011;42456;49.956;20.004;2023-08-17T08:36:40;8.90;;;5.80;;
56567;SDS011;42456;49.956;20.004;2023-08-17T08:39:07;11.10;;;6.20;;
56567;SDS011;42456;49.956;20.004;2023-08-17T08:41:34;11.30;;;6.00;;
56567;SDS011;42456;49.956;20.004;2023-08-17T08:47:00;10.20;;;6.00;;
56567;SDS011;42456;49.956;20.004;2023-08-17T08:49:28;9.70;;;6.00;;
56567;SDS011;42456;49.956;20.004;2023-08-17T08:51:57;10.30;;;6.00;;
56567;SDS011;42456;49.956;20.004;2023-08-17T08:54:27;10.90;;;5.90;;
56567;SDS011;42456;49.956;20.004;2023-08-17T08:57:01;10.50;;;6.00;;
56567;SDS011;42456;49.956;20.004;2023-08-17T08:59:30;10.10;;;5.70;;
56567;SDS011;42456;49.956;20.004;2023-08-17T09:01:59;9.40;;;5.70;;
56567;SDS011;42456;49.956;20.004;2023-08-17T09:04:26;9.10;;;5.70;;
56567;SDS011;42456;49.956;20.004;2023-08-17T09:09:22;12.00;;;6.10;;
56567;SDS011;42456;49.956;20.004;2023-08-17T09:11:55;8.50;;;6.10;;
56567;SDS011;42456;49.956;20.004;2023-08-17T09:14:22;8.60;;;6.00;;
56567;SDS011;42456;49.956;20.004;2023-08-17T09:16:48;10.40;;;5.80;;
56567;SDS011;42456;49.956;20.004;2023-08-17T09:19:15;10.30;;;5.80;;
56567;SDS011;42456;49.956;20.004;2023-08-17T09:21:44;11.60;;;5.90;;
56567;SDS011;42456;49.956;20.004;2023-08-17T09:24:16;12.40;;;5.90;;
56567;SDS011;42456;49.956;20.004;2023-08-17T09:26:43;10.30;;;5.60;;
56567;SDS011;42456;49.956;20.004;2023-08-17T09:29:20;10.60;;;5.80;;
56567;SDS011;42456;49.956;20.004;2023-08-17T09:31:48;9.90;;;5.40;;
56567;SDS011;42456;49.956;20.004;2023-08-17T09:34:15;10.60;;;5.00;;
56567;SDS011;42456;49.956;20.004;2023-08-17T09:36:45;8.00;;;5.10;;
56567;SDS011;42456;49.956;20.004;2023-08-17T09:39:14;10.80;;;4.60;;
56567;SDS011;42456;49.956;20.004;2023-08-17T09:41:43;5.60;;;3.90;;
56567;SDS011;42456;49.956;20.004;2023-08-17T09:44:10;9.50;;;4.90;;
56567;SDS011;42456;49.956;20.004;2023-08-17T09:46:38;7.60;;;4.30;;
56567;SDS011;42456;49.956;20.004;2023-08-17T09:49:05;11.00;;;5.80;;
56567;SDS011;42456;49.956;20.004;2023-08-17T09:51:33;9.40;;;5.70;;
56567;SDS011;42456;49.956;20.004;2023-08-17T09:54:00;10.80;;;5.10;;
56567;SDS011;42456;49.956;20.004;2023-08-17T09:56:30;9.90;;;5.30;;
56567;SDS011;42456;49.956;20.004;2023-08-17T09:58:58;14.00;;;5.40;;
56567;SDS011;42456;49.956;20.004;2023-08-17T10:01:25;9.40;;;5.50;;
56567;SDS011;42456;49.956;20.004;2023-08-17T10:03:55;8.70;;;5.50;;
56567;SDS011;42456;49.956;20.004;2023-08-17T10:06:25;12.60;;;5.40;;
56567;SDS011;42456;49.956;20.004;2023-08-17T10:08:56;12.00;;;6.20;;
56567;SDS011;42456;49.956;20.004;2023-08-17T10:11:25;12.90;;;6.90;;
56567;SDS011;42456;49.956;20.004;2023-08-17T10:13:59;16.10;;;6.90;;
56567;SDS011;42456;49.956;20.004;2023-08-17T10:22:33;11.70;;;6.70;;
56567;SDS011;42456;49.956;20.004;2023-08-17T10:24:45;10.20;;;5.40;;
56567;SDS011;42456;49.956;20.004;2023-08-17T10:27:12;9.00;;;5.00;;
56567;SDS011;42456;49.956;20.004;2023-08-17T10:29:41;8.30;;;4.80;;
56567;SDS011;42456;49.956;20.004;2023-08-17T10:34:42;7.50;;;4.20;;
56567;SDS011;42456;49.956;20.004;2023-08-17T10:37:10;8.20;;;4.30;;
56567;SDS011;42456;49.956;20.004;2023-08-17T10:39:44;10.80;;;4.80;;
56567;SDS011;42456;49.956;20.004;2023-08-17T10:42:12;10.00;;;4.90;;
56567;SDS011;42456;49.956;20.004;2023-08-17T10:44:44;6.70;;;4.50;;
56567;SDS011;42456;49.956;20.004;2023-08-17T10:47:19;7.40;;;5.00;;
56567;SDS011;42456;49.956;20.004;2023-08-17T10:49:47;10.00;;;4.80;;
56567;SDS011;42456;49.956;20.004;2023-08-17T10:52:19;8.60;;;4.50;;
56567;SDS011;42456;49.956;20.004;2023-08-17T10:54:53;11.30;;;5.00;;
56567;SDS011;42456;49.956;20.004;2023-08-17T11:02:55;7.80;;;4.60;;
56567;SDS011;42456;49.956;20.004;2023-08-17T11:08:23;8.10;;;5.00;;
56567;SDS011;42456;49.956;20.004;2023-08-17T11:10:58;8.60;;;4.90;;
56567;SDS011;42456;49.956;20.004;2023-08-17T11:13:34;9.90;;;5.00;;
56567;SDS011;42456;49.956;20.004;2023-08-17T11:16:03;6.70;;;5.00;;
56567;SDS011;42456;49.956;20.004;2023-08-17T11:18:31;9.20;;;4.70;;
56567;SDS011;42456;49.956;20.004;2023-08-17T11:21:00;7.70;;;4.70;;
56567;SDS011;42456;49.956;20.004;2023-08-17T11:23:30;9.50;;;5.00;;
56567;SDS011;42456;49.956;20.004;2023-08-17T11:25:58;8.20;;;4.90;;
56567;SDS011;42456;49.956;20.004;2023-08-17T11:28:26;8.80;;;4.70;;
56567;SDS011;42456;49.956;20.004;2023-08-17T11:31:00;7.70;;;4.40;;
56567;SDS011;42456;49.956;20.004;2023-08-17T11:33:29;7.20;;;4.60;;
56567;SDS011;42456;49.956;20.004;2023-08-17T11:35:58;8.00;;;4.40;;
56567;SDS011;42456;49.956;20.004;2023-08-17T11:38:30;7.30;;;4.30;;
56567;SDS011;42456;49.956;20.004;2023-08-17T11:41:07;5.10;;;4.20;;
56567;SDS011;42456;49.956;20.004;2023-08-17T11:43:36;9.40;;;4.60;;
56567;SDS011;42456;49.956;20.004;2023-08-17T11:46:04;7.20;;;4.20;;
56567;SDS011;42456;49.956;20.004;2023-08-17T11:48:32;5.20;;;4.00;;
56567;SDS011;42456;49.956;20.004;2023-08-17T11:51:03;5.90;;;3.80;;
56567;SDS011;42456;49.956;20.004;2023-08-17T11:53:35;7.00;;;4.00;;
56567;SDS011;42456;49.956;20.004;2023-08-17T11:56:03;5.50;;;4.00;;
56567;SDS011;42456;49.956;20.004;2023-08-17T11:58:45;7.00;;;4.20;;
56567;SDS011;42456;49.956;20.004;2023-08-17T12:01:13;6.70;;;3.80;;
56567;SDS011;42456;49.956;20.004;2023-08-17T12:03:43;6.10;;;3.80;;
56567;SDS011;42456;49.956;20.004;2023-08-17T12:06:11;7.90;;;4.10;;
56567;SDS011;42456;49.956;20.004;2023-08-17T12:08:43;7.10;;;3.90;;
56567;SDS011;42456;49.956;20.004;2023-08-17T12:11:13;5.70;;;4.00;;
56567;SDS011;42456;49.956;20.004;2023-08-17T12:16:14;5.00;;;3.40;;
56567;SDS011;42456;49.956;20.004;2023-08-17T12:18:43;6.30;;;3.60;;
56567;SDS011;42456;49.956;20.004;2023-08-17T12:21:20;19.00;;;5.00;;
56567;SDS011;42456;49.956;20.004;2023-08-17T12:23:51;9.90;;;3.70;;
56567;SDS011;42456;49.956;20.004;2023-08-17T12:26:21;10.00;;;3.20;;
56567;SDS011;42456;49.956;20.004;2023-08-17T12:28:49;5.40;;;3.00;;
56567;SDS011;42456;49.956;20.004;2023-08-17T12:31:20;5.20;;;2.60;;
56567;SDS011;42456;49.956;20.004;2023-08-17T12:33:49;6.00;;;3.10;;
56567;SDS011;42456;49.956;20.004;2023-08-17T12:36:16;8.30;;;3.00;;
56567;SDS011;42456;49.956;20.004;2023-08-17T12:38:45;4.80;;;3.10;;
56567;SDS011;42456;49.956;20.004;2023-08-17T12:41:15;8.00;;;3.20;;
56567;SDS011;42456;49.956;20.004;2023-08-17T12:43:44;8.50;;;3.10;;
56567;SDS011;42456;49.956;20.004;2023-08-17T12:46:11;6.30;;;2.90;;
56567;SDS011;42456;49.956;20.004;2023-08-17T12:48:38;5.50;;;3.00;;
56567;SDS011;42456;49.956;20.004;2023-08-17T12:51:05;7.60;;;3.40;;
56567;SDS011;42456;49.956;20.004;2023-08-17T12:53:32;6.20;;;3.10;;
56567;SDS011;42456;49.956;20.004;2023-08-17T12:55:59;5.80;;;2.90;;
56567;SDS011;42456;49.956;20.004;2023-08-17T12:58:26;6.30;;;3.00;;
56567;SDS011;42456;49.956;20.004;2023-08-17T13:00:53;6.50;;;3.50;;
56567;SDS011;42456;49.956;20.004;2023-08-17T13:03:21;6.20;;;3.00;;
56567;SDS011;42456;49.956;20.004;2023-08-17T13:05:48;7.60;;;3.30;;
56567;SDS011;42456;49.956;20.004;2023-08-17T13:08:16;6.00;;;2.90;;
56567;SDS011;42456;49.956;20.004;2023-08-17T13:10:43;4.30;;;3.00;;
56567;SDS011;42456;49.956;20.004;2023-08-17T13:13:10;5.60;;;3.20;;
56567;SDS011;42456;49.956;20.004;2023-08-17T13:15:37;6.00;;;3.50;;
56567;SDS011;42456;49.956;20.004;2023-08-17T13:18:04;5.50;;;3.50;;
56567;SDS011;42456;49.956;20.004;2023-08-17T13:20:31;5.70;;;3.70;;
56567;SDS011;42456;49.956;20.004;2023-08-17T13:22:59;4.70;;;2.90;;
56567;SDS011;42456;49.956;20.004;2023-08-17T13:25:26;4.10;;;3.30;;
56567;SDS011;42456;49.956;20.004;2023-08-17T13:27:53;4.40;;;3.00;;
56567;SDS011;42456;49.956;20.004;2023-08-17T13:30:20;5.10;;;2.90;;
56567;SDS011;42456;49.956;20.004;2023-08-17T13:32:47;5.00;;;2.90;;
56567;SDS011;42456;49.956;20.004;2023-08-17T13:35:15;5.00;;;3.20;;
56567;SDS011;42456;49.956;20.004;2023-08-17T13:37:42;4.90;;;2.80;;
56567;SDS011;42456;49.956;20.004;2023-08-17T13:40:09;6.50;;;3.10;;
56567;SDS011;42456;49.956;20.004;2023-08-17T13:42:37;3.40;;;2.70;;
56567;SDS011;42456;49.956;20.004;2023-08-17T13:45:04;4.40;;;2.80;;
56567;SDS011;42456;49.956;20.004;2023-08-17T13:47:31;4.90;;;2.80;;
56567;SDS011;42456;49.956;20.004;2023-08-17T13:49:58;3.60;;;2.70;;
56567;SDS011;42456;49.956;20.004;2023-08-17T13:52:25;4.90;;;3.00;;
56567;SDS011;42456;49.956;20.004;2023-08-17T13:54:53;4.20;;;2.70;;
56567;SDS011;42456;49.956;20.004;2023-08-17T13:57:20;4.70;;;2.70;;
56567;SDS011;42456;49.956;20.004;2023-08-17T13:59:47;5.00;;;3.10;;
56567;SDS011;42456;49.956;20.004;2023-08-17T14:02:14;4.50;;;2.70;;
56567;SDS011;42456;49.956;20.004;2023-08-17T14:04:41;4.80;;;2.70;;
56567;SDS011;42456;49.956;20.004;2023-08-17T14:07:08;3.10;;;2.80;;
56567;SDS011;42456;49.956;20.004;2023-08-17T14:09:35;4.60;;;2.80;;
56567;SDS011;42456;49.956;20.004;2023-08-17T14:12:02;5.60;;;2.90;;
56567;SDS011;42456;49.956;20.004;2023-08-17T14:14:31;5.10;;;2.70;;
56567;SDS011;42456;49.956;20.004;2023-08-17T14:16:58;4.60;;;2.80;;
56567;SDS011;42456;49.956;20.004;2023-08-17T14:19:25;3.80;;;2.70;;
56567;SDS011;42456;49.956;20.004;2023-08-17T14:21:52;5.00;;;3.00;;
56567;SDS011;42456;49.956;20.004;2023-08-17T14:24:19;3.30;;;2.70;;
56567;SDS011;42456;49.956;20.004;2023-08-17T14:26:46;3.50;;;2.70;;
56567;SDS011;42456;49.956;20.004;2023-08-17T14:29:13;6.00;;;3.10;;
56567;SDS011;42456;49.956;20.004;2023-08-17T14:31:40;5.50;;;2.80;;
56567;SDS011;42456;49.956;20.004;2023-08-17T14:34:07;4.30;;;3.00;;
56567;SDS011;42456;49.956;20.004;2023-08-17T14:36:34;4.80;;;2.90;;
56567;SDS011;42456;49.956;20.004;2023-08-17T14:39:01;3.80;;;3.10;;
56567;SDS011;42456;49.956;20.004;2023-08-17T14:41:28;3.60;;;2.80;;
56567;SDS011;42456;49.956;20.004;2023-08-17T14:43:59;5.00;;;2.70;;
56567;SDS011;42456;49.956;20.004;2023-08-17T14:46:29;7.10;;;2.90;;
56567;SDS011;42456;49.956;20.004;2023-08-17T14:48:57;4.10;;;3.00;;
56567;SDS011;42456;49.956;20.004;2023-08-17T14:51:24;4.90;;;3.10;;
56567;SDS011;42456;49.956;20.004;2023-08-17T14:53:54;8.00;;;3.20;;
56567;SDS011;42456;49.956;20.004;2023-08-17T14:56:21;4.30;;;3.00;;
56567;SDS011;42456;49.956;20.004;2023-08-17T14:58:49;5.10;;;2.90;;
56567;SDS011;42456;49.956;20.004;2023-08-17T15:01:16;4.00;;;2.90;;
56567;SDS011;42456;49.956;20.004;2023-08-17T15:03:44;3.80;;;3.00;;
56567;SDS011;42456;49.956;20.004;2023-08-17T15:06:13;4.40;;;2.80;;
56567;SDS011;42456;49.956;20.004;2023-08-17T15:08:58;4.10;;;2.90;;
56567;SDS011;42456;49.956;20.004;2023-08-17T15:11:25;4.50;;;2.60;;